Time;durP1;ratioP1;P1;durP2;ratioP2;P2;SDS_P1;SDS_P2;PMS_P1;PMS_P2;Temp;Humidity;BMP_temperature;BMP_pressure;BME280_temperature;BME280_humidity;BME280_pressure;Samples;Min_cycle;Max_cycle;Signal;HPM_P1;HPM_P2
2024/03/24 00:02:14;;;;;;;7.13;3.53;;;6.40;99.90;;;;;;5013906;28;20222;-88
2024/03/24 00:04:40;;;;;;;10.07;3.60;;;6.50;99.90;;;;;;5014424;28;20274;-80
2024/03/24 00:07:05;;;;;;;5.40;2.53;;;6.40;99.90;;;;;;5014252;28;20564;-85
2024/03/24 00:09:31;;;;;;;7.27;3.03;;;6.50;99.90;;;;;;5015138;28;20201;-83
2024/03/24 00:11:57;;;;;;;7.60;3.23;;;6.50;99.90;;;;;;5015645;28;20214;-84
2024/03/24 00:14:22;;;;;;;7.37;3.10;;;6.50;99.90;;;;;;5013914;28;20686;-84
2024/03/24 00:16:48;;;;;;;9.17;3.30;;;6.50;99.90;;;;;;5014867;28;20174;-82
2024/03/24 00:19:14;;;;;;;8.23;2.83;;;6.50;99.90;;;;;;5015137;28;20248;-83
2024/03/24 00:21:40;;;;;;;7.53;2.80;;;6.50;99.90;;;;;;5014885;28;20663;-82
2024/03/24 00:24:05;;;;;;;5.90;3.10;;;6.50;99.90;;;;;;5013347;28;20225;-84
2024/03/24 00:26:31;;;;;;;9.37;3.53;;;6.50;99.90;;;;;;5013788;28;20171;-86
2024/03/24 00:28:57;;;;;;;4.90;3.20;;;6.50;99.90;;;;;;5014598;28;20186;-84
2024/03/24 00:31:22;;;;;;;7.67;3.30;;;6.60;99.90;;;;;;5013615;28;20641;-81
2024/03/24 00:33:48;;;;;;;7.23;3.33;;;6.60;99.90;;;;;;5014952;28;20177;-85
2024/03/24 00:36:14;;;;;;;5.53;2.87;;;6.70;99.90;;;;;;5013942;28;20658;-85
2024/03/24 00:38:40;;;;;;;8.37;2.97;;;6.70;99.90;;;;;;5013812;28;20681;-85
2024/03/24 00:41:06;;;;;;;7.20;3.57;;;6.80;99.90;;;;;;5012872;28;20185;-87
2024/03/24 00:43:36;;;;;;;7.60;3.07;;;6.70;99.90;;;;;;5013689;28;20198;-87
2024/03/24 00:46:03;;;;;;;8.20;3.43;;;6.70;99.90;;;;;;5012546;28;20225;-87
2024/03/24 00:48:29;;;;;;;8.33;3.47;;;6.70;99.90;;;;;;5013129;28;20658;-83
2024/03/24 00:50:55;;;;;;;8.20;2.97;;;6.70;99.90;;;;;;5013340;28;20171;-87
2024/03/24 00:53:22;;;;;;;6.37;2.90;;;6.80;99.90;;;;;;5046370;28;20174;-84
2024/03/24 00:55:48;;;;;;;8.37;3.17;;;6.80;99.90;;;;;;5011536;28;20240;-86
2024/03/24 00:58:14;;;;;;;8.80;2.77;;;6.70;99.90;;;;;;5013445;28;20193;-88
2024/03/24 01:00:40;;;;;;;8.93;2.80;;;6.70;99.90;;;;;;5013912;28;20171;-87
2024/03/24 01:03:05;;;;;;;7.70;3.23;;;6.80;99.90;;;;;;5014636;28;20276;-86
2024/03/24 01:05:31;;;;;;;8.30;3.20;;;6.90;99.90;;;;;;5012249;28;20178;-86
2024/03/24 01:07:57;;;;;;;7.93;3.10;;;6.90;99.90;;;;;;5013036;28;20178;-82
2024/03/24 01:10:22;;;;;;;9.33;2.80;;;6.80;99.90;;;;;;5013072;28;20167;-82
2024/03/24 01:12:49;;;;;;;7.30;2.83;;;6.90;99.90;;;;;;5045732;28;20215;-83
2024/03/24 01:15:16;;;;;;;10.37;2.93;;;6.80;99.90;;;;;;5012878;28;20457;-82
2024/03/24 01:17:43;;;;;;;8.33;2.97;;;6.80;99.90;;;;;;5012789;28;20538;-84
2024/03/24 01:20:12;;;;;;;6.53;3.10;;;6.80;99.90;;;;;;5012952;28;20260;-84
2024/03/24 01:22:42;;;;;;;6.37;3.13;;;6.90;99.90;;;;;;5014679;28;20194;-87
2024/03/24 01:25:08;;;;;;;9.30;2.80;;;6.80;99.90;;;;;;5011746;28;20170;-88
2024/03/24 01:27:34;;;;;;;6.77;2.93;;;6.90;99.90;;;;;;5013413;28;20178;-88
2024/03/24 01:30:00;;;;;;;8.23;3.67;;;6.90;99.90;;;;;;5046071;28;20178;-86
2024/03/24 01:32:26;;;;;;;8.03;3.30;;;6.80;99.90;;;;;;5046121;28;20535;-83
2024/03/24 01:34:52;;;;;;;12.27;3.60;;;6.80;99.90;;;;;;5012003;28;20185;-81
2024/03/24 01:37:18;;;;;;;9.47;2.77;;;6.80;99.90;;;;;;5046064;28;20178;-87
2024/03/24 01:39:46;;;;;;;6.93;2.87;;;6.80;99.90;;;;;;5013509;28;20205;-86
2024/03/24 01:42:12;;;;;;;7.10;2.73;;;6.80;99.90;;;;;;5013389;28;20554;-86
2024/03/24 01:44:39;;;;;;;9.03;2.90;;;6.80;99.90;;;;;;5045271;28;20190;-87
2024/03/24 01:47:05;;;;;;;6.60;3.20;;;6.70;99.90;;;;;;5013860;28;20174;-87
2024/03/24 01:49:31;;;;;;;9.07;2.50;;;6.70;99.90;;;;;;5045210;28;20686;-84
2024/03/24 01:51:57;;;;;;;6.67;3.13;;;6.70;99.90;;;;;;5045261;28;20204;-82
2024/03/24 01:54:25;;;;;;;8.17;3.43;;;6.70;99.90;;;;;;5044553;28;20182;-85
2024/03/24 01:56:51;;;;;;;8.07;3.27;;;6.70;99.90;;;;;;5012817;28;20224;-86
2024/03/24 01:59:16;;;;;;;8.57;3.23;;;6.80;99.90;;;;;;5044548;28;20182;-82
2024/03/24 02:01:43;;;;;;;9.17;2.77;;;6.80;99.90;;;;;;5012313;28;20186;-82
2024/03/24 02:04:09;;;;;;;8.60;2.93;;;6.80;99.90;;;;;;5045368;28;20189;-80
2024/03/24 02:06:35;;;;;;;6.40;2.47;;;6.60;99.90;;;;;;5012557;28;20261;-84
2024/03/24 02:09:01;;;;;;;8.40;2.50;;;6.70;99.90;;;;;;5011453;28;20316;-81
2024/03/24 02:11:28;;;;;;;6.37;3.20;;;6.70;99.90;;;;;;5013172;28;20257;-81
2024/03/24 02:13:58;;;;;;;6.13;2.40;;;6.70;99.90;;;;;;5044405;28;20205;-82
2024/03/24 02:16:24;;;;;;;4.20;2.40;;;6.70;99.90;;;;;;5013141;28;20201;-86
2024/03/24 02:18:50;;;;;;;7.93;2.70;;;6.80;99.90;;;;;;5013306;28;20635;-84
2024/03/24 02:21:16;;;;;;;6.83;2.70;;;6.90;99.90;;;;;;5012156;28;20212;-84
2024/03/24 02:23:42;;;;;;;6.73;2.90;;;6.80;96.40;;;;;;5012440;28;20221;-85
2024/03/24 02:26:07;;;;;;;7.50;2.80;;;6.80;97.70;;;;;;5013467;28;20245;-85
2024/03/24 02:28:33;;;;;;;7.83;2.90;;;6.80;98.40;;;;;;5012004;28;20171;-85
2024/03/24 02:30:59;;;;;;;11.07;2.80;;;6.80;99.20;;;;;;5011928;28;20213;-84
2024/03/24 02:33:25;;;;;;;10.17;2.87;;;6.80;99.30;;;;;;5013018;28;20190;-82
2024/03/24 02:35:50;;;;;;;8.87;2.90;;;6.90;98.80;;;;;;5012997;28;20221;-84
2024/03/24 02:38:16;;;;;;;8.73;2.50;;;7.10;94.50;;;;;;5010999;28;20233;-82
2024/03/24 02:40:42;;;;;;;12.83;2.70;;;7.00;91.10;;;;;;5044466;28;20170;-87
2024/03/24 02:43:07;;;;;;;10.87;2.97;;;7.10;87.10;;;;;;5012583;28;20206;-81
2024/03/24 02:45:33;;;;;;;11.50;3.17;;;7.10;86.10;;;;;;5011206;28;20221;-83
2024/03/24 02:47:59;;;;;;;11.40;2.90;;;7.10;85.00;;;;;;5011805;28;20187;-84
2024/03/24 02:50:25;;;;;;;12.20;3.53;;;7.10;84.10;;;;;;5011014;28;20176;-81
2024/03/24 02:52:50;;;;;;;9.83;2.90;;;7.00;90.60;;;;;;5012040;28;20689;-86
2024/03/24 02:55:16;;;;;;;9.23;3.23;;;7.00;91.50;;;;;;5011675;28;20181;-82
2024/03/24 02:57:42;;;;;;;10.80;2.57;;;7.00;95.30;;;;;;5011143;28;20189;-87
2024/03/24 03:00:11;;;;;;;7.93;2.63;;;7.10;97.80;;;;;;5043360;28;20708;-83
2024/03/24 03:02:36;;;;;;;8.97;3.20;;;7.00;96.70;;;;;;5011250;28;20218;-83
2024/03/24 03:05:02;;;;;;;9.13;2.83;;;7.00;96.70;;;;;;5011270;28;20173;-82
2024/03/24 03:07:28;;;;;;;7.27;2.60;;;7.10;94.30;;;;;;5012824;28;20193;-82
2024/03/24 03:09:54;;;;;;;7.10;2.97;;;7.20;94.80;;;;;;5011447;28;20178;-86
2024/03/24 03:12:20;;;;;;;18.27;3.40;;;7.20;92.20;;;;;;5011159;28;20656;-86
2024/03/24 03:14:46;;;;;;;9.83;2.83;;;7.10;92.00;;;;;;5012691;28;20197;-82
2024/03/24 03:17:12;;;;;;;8.77;2.90;;;7.30;93.60;;;;;;5012205;28;20623;-82
2024/03/24 03:19:38;;;;;;;7.30;2.50;;;7.20;89.40;;;;;;5011300;28;20265;-85
2024/03/24 03:22:04;;;;;;;8.10;2.87;;;7.30;83.90;;;;;;5042209;28;20244;-83
2024/03/24 03:24:29;;;;;;;8.37;3.10;;;7.30;83.20;;;;;;5013299;28;20186;-83
2024/03/24 03:26:55;;;;;;;7.37;3.27;;;7.30;79.90;;;;;;5016286;28;20567;-82
2024/03/24 03:29:21;;;;;;;8.03;2.80;;;7.50;73.50;;;;;;5047816;28;20179;-81
2024/03/24 03:31:47;;;;;;;8.20;2.50;;;7.40;64.00;;;;;;5015794;28;20265;-84
2024/03/24 03:34:13;;;;;;;6.63;2.80;;;7.30;65.30;;;;;;5015956;28;20692;-81
2024/03/24 03:36:38;;;;;;;7.40;2.40;;;7.20;77.40;;;;;;5015020;28;20186;-84
2024/03/24 03:39:07;;;;;;;7.63;2.67;;;7.30;77.20;;;;;;5016547;28;20171;-81
2024/03/24 03:41:32;;;;;;;7.00;2.53;;;7.40;72.20;;;;;;5022394;28;20190;-81
2024/03/24 03:43:58;;;;;;;8.67;3.17;;;7.40;68.30;;;;;;5021391;28;20240;-83
2024/03/24 03:46:24;;;;;;;8.27;3.10;;;7.30;73.00;;;;;;5054413;28;20174;-81
2024/03/24 03:48:49;;;;;;;8.30;2.87;;;7.30;76.70;;;;;;5023141;28;20170;-80
2024/03/24 03:51:27;;;;;;;9.87;2.77;;;7.30;72.50;;;;;;5024070;28;20622;-80
2024/03/24 03:53:55;;;;;;;9.87;2.70;;;7.50;63.40;;;;;;5022396;28;20194;-86
2024/03/24 03:56:21;;;;;;;12.20;3.47;;;7.40;58.50;;;;;;5015659;28;20174;-83
2024/03/24 03:58:47;;;;;;;8.80;2.50;;;7.40;57.10;;;;;;5016393;28;20163;-84
2024/03/24 04:01:13;;;;;;;11.47;3.03;;;7.50;53.80;;;;;;5015884;28;20568;-83
2024/03/24 04:03:40;;;;;;;8.97;2.67;;;7.50;49.60;;;;;;5015513;28;20225;-86
2024/03/24 04:06:07;;;;;;;10.47;3.57;;;7.50;44.90;;;;;;5014715;28;20175;-83
2024/03/24 04:08:33;;;;;;;10.43;3.13;;;7.60;42.00;;;;;;5047098;28;20651;-83
2024/03/24 04:10:58;;;;;;;5.27;2.50;;;7.50;36.80;;;;;;5016072;28;20170;-82
2024/03/24 04:13:24;;;;;;;8.13;3.30;;;7.60;30.50;;;;;;5015674;28;20251;-83
2024/03/24 04:15:50;;;;;;;11.00;2.93;;;7.60;29.10;;;;;;5014782;28;20185;-85
2024/03/24 04:18:16;;;;;;;7.43;2.57;;;7.50;30.60;;;;;;5014171;28;20174;-86
2024/03/24 04:20:41;;;;;;;8.33;2.87;;;7.50;28.80;;;;;;5015570;28;20201;-84
2024/03/24 04:23:07;;;;;;;9.10;2.77;;;7.60;27.00;;;;;;5046325;28;20221;-82
2024/03/24 04:25:33;;;;;;;11.27;2.67;;;7.70;26.30;;;;;;5015405;28;20166;-83
2024/03/24 04:27:58;;;;;;;7.73;2.70;;;7.60;20.80;;;;;;5014944;28;20323;-82
2024/03/24 04:30:24;;;;;;;9.53;2.90;;;7.60;19.70;;;;;;5015421;28;20172;-86
2024/03/24 04:32:49;;;;;;;9.73;3.13;;;7.60;16.10;;;;;;5013802;28;20212;-84
2024/03/24 04:35:15;;;;;;;5.87;2.60;;;7.70;8.40;;;;;;5013506;28;20635;-81
2024/03/24 04:37:41;;;;;;;6.23;2.13;;;7.60;7.50;;;;;;5014547;28;20170;-84
2024/03/24 04:40:08;;;;;;;8.43;2.50;;;7.70;6.90;;;;;;5014386;28;20858;-81
2024/03/24 04:42:34;;;;;;;7.00;2.70;;;7.70;2.10;;;;;;5014510;28;20554;-86
2024/03/24 04:45:01;;;;;;;10.57;2.93;;;7.70;2.00;;;;;;5012952;28;20229;-83
2024/03/24 04:47:28;;;;;;;8.40;3.07;;;7.80;2.30;;;;;;5013594;28;20202;-87
2024/03/24 04:49:54;;;;;;;8.03;2.37;;;7.80;1.00;;;;;;5014569;28;20170;-84
2024/03/24 04:52:20;;;;;;;9.10;2.57;;;7.80;1.00;;;;;;5015160;28;20536;-85
2024/03/24 04:54:45;;;;;;;12.67;3.50;;;7.80;1.00;;;;;;5014135;28;20162;-83
2024/03/24 04:57:11;;;;;;;8.37;3.00;;;7.80;2.20;;;;;;5013897;28;20292;-86
2024/03/24 04:59:37;;;;;;;10.17;3.03;;;7.70;1.00;;;;;;5013336;28;20627;-83
2024/03/24 05:02:03;;;;;;;8.17;2.50;;;7.70;1.00;;;;;;5014260;28;20237;-85
2024/03/24 05:04:29;;;;;;;8.60;3.10;;;7.70;1.00;;;;;;5013964;28;20257;-81
2024/03/24 05:06:54;;;;;;;10.17;3.10;;;7.70;1.00;;;;;;5013608;28;20268;-81
2024/03/24 05:09:22;;;;;;;12.53;2.87;;;7.70;1.00;;;;;;5013625;28;20676;-86
2024/03/24 05:11:47;;;;;;;9.10;3.17;;;7.90;1.00;;;;;;5013589;28;20253;-85
2024/03/24 05:14:13;;;;;;;7.33;2.33;;;7.90;1.00;;;;;;5013499;28;20292;-81
2024/03/24 05:16:39;;;;;;;9.93;3.53;;;8.00;1.00;;;;;;5013918;28;20248;-83
2024/03/24 05:19:06;;;;;;;9.93;3.37;;;7.90;1.00;;;;;;5013846;28;20224;-88
2024/03/24 05:21:32;;;;;;;7.97;2.97;;;7.90;1.00;;;;;;5012752;28;20262;-86
2024/03/24 05:23:57;;;;;;;10.57;3.00;;;7.90;1.00;;;;;;5012839;28;20305;-85
2024/03/24 05:26:24;;;;;;;9.57;3.50;;;7.90;1.00;;;;;;5013292;28;20241;-84
2024/03/24 05:28:50;;;;;;;10.93;3.20;;;7.80;8.60;;;;;;5014109;28;20509;-80
2024/03/24 05:31:16;;;;;;;7.53;2.60;;;7.80;5.30;;;;;;5012904;28;20638;-87
2024/03/24 05:33:42;;;;;;;7.30;2.93;;;7.80;3.10;;;;;;5012347;28;20167;-84
2024/03/24 05:36:08;;;;;;;11.77;3.37;;;7.80;1.00;;;;;;5013051;28;20244;-87
2024/03/24 05:38:34;;;;;;;9.27;2.90;;;7.80;1.00;;;;;;5012702;28;20225;-82
2024/03/24 05:41:03;;;;;;;11.33;3.17;;;7.90;1.00;;;;;;5012941;28;20685;-84
2024/03/24 05:43:30;;;;;;;10.10;2.90;;;7.90;1.00;;;;;;5045433;28;20210;-83
2024/03/24 05:45:56;;;;;;;10.80;3.50;;;7.90;1.00;;;;;;5010584;28;20175;-88
2024/03/24 05:48:25;;;;;;;6.87;2.60;;;7.90;1.00;;;;;;5013352;28;20694;-83
2024/03/24 05:51:05;;;;;;;13.80;3.27;;;7.80;1.00;;;;;;5012929;28;20174;-85
2024/03/24 05:53:32;;;;;;;9.37;3.27;;;7.80;1.00;;;;;;5014384;28;20208;-82
2024/03/24 05:56:01;;;;;;;7.17;2.90;;;7.80;1.00;;;;;;5012451;28;20185;-87
2024/03/24 05:58:28;;;;;;;10.37;3.30;;;7.90;1.00;;;;;;5011263;28;20178;-82
2024/03/24 06:00:54;;;;;;;10.47;3.47;;;7.80;1.00;;;;;;5013183;28;20264;-81
2024/03/24 06:03:20;;;;;;;7.47;2.60;;;7.80;1.00;;;;;;5012761;28;20314;-83
2024/03/24 06:05:46;;;;;;;12.80;3.23;;;7.90;1.00;;;;;;5012403;28;20601;-86
2024/03/24 06:08:12;;;;;;;8.93;2.97;;;7.90;1.00;;;;;;5013400;28;20185;-82
2024/03/24 06:10:42;;;;;;;11.07;3.20;;;7.90;1.00;;;;;;5013722;28;20170;-81
2024/03/24 06:13:07;;;;;;;13.43;3.57;;;7.90;1.00;;;;;;5013680;28;20186;-86
2024/03/24 06:15:33;;;;;;;9.13;2.47;;;8.00;1.00;;;;;;5012249;28;20226;-88
2024/03/24 06:18:06;;;;;;;9.53;2.80;;;7.90;1.00;;;;;;5012682;28;20220;-81
2024/03/24 06:20:34;;;;;;;10.73;3.83;;;7.90;1.00;;;;;;5045030;28;20221;-84
2024/03/24 06:23:02;;;;;;;9.77;2.97;;;8.00;1.00;;;;;;5013333;28;20202;-85
2024/03/24 06:25:29;;;;;;;12.40;3.50;;;7.90;1.00;;;;;;5013580;28;20175;-85
2024/03/24 06:27:56;;;;;;;7.50;2.83;;;7.90;1.00;;;;;;5012565;28;20174;-85
2024/03/24 06:30:22;;;;;;;8.23;2.50;;;7.70;21.50;;;;;;5044864;28;20171;-88
2024/03/24 06:32:48;;;;;;;6.73;3.03;;;7.40;32.40;;;;;;5045244;28;20273;-81
2024/03/24 06:35:13;;;;;;;7.83;3.33;;;7.20;43.20;;;;;;5012037;28;20189;-80
2024/03/24 06:37:39;;;;;;;8.60;3.33;;;7.20;56.00;;;;;;5013150;28;20174;-83
2024/03/24 06:40:09;;;;;;;11.77;3.90;;;7.20;65.90;;;;;;5012416;28;20197;-85
2024/03/24 06:42:43;;;;;;;8.97;3.97;;;7.30;70.20;;;;;;5010657;28;20244;-82
2024/03/24 06:45:12;;;;;;;9.40;3.20;;;7.50;70.70;;;;;;5011075;28;20765;-82
2024/03/24 06:47:38;;;;;;;10.77;3.10;;;7.40;64.90;;;;;;5044875;28;20201;-84
2024/03/24 06:50:05;;;;;;;13.77;3.40;;;7.50;48.40;;;;;;5011848;28;20635;-86
2024/03/24 06:52:35;;;;;;;10.40;3.07;;;7.50;45.20;;;;;;5012888;28;20174;-82
2024/03/24 06:55:01;;;;;;;12.80;3.83;;;7.50;28.80;;;;;;5012697;28;20181;-81
2024/03/24 06:57:27;;;;;;;10.73;3.67;;;7.60;32.10;;;;;;5012863;28;20166;-87
2024/03/24 06:59:54;;;;;;;9.27;3.77;;;7.70;27.80;;;;;;5012982;28;20539;-82
2024/03/24 07:02:20;;;;;;;8.13;3.70;;;7.70;27.40;;;;;;5011434;28;20308;-85
2024/03/24 07:04:46;;;;;;;11.63;4.37;;;7.70;25.60;;;;;;5012783;28;20350;-87
2024/03/24 07:07:11;;;;;;;8.07;3.30;;;7.80;27.70;;;;;;5010539;28;20255;-82
2024/03/24 07:09:37;;;;;;;9.57;3.93;;;7.80;22.60;;;;;;5011408;28;20821;-82
2024/03/24 07:12:04;;;;;;;12.33;3.60;;;7.90;19.10;;;;;;5011395;28;20217;-84
2024/03/24 07:14:30;;;;;;;10.73;3.67;;;7.90;17.50;;;;;;5012906;28;20187;-84
2024/03/24 07:16:56;;;;;;;11.30;3.70;;;8.00;15.80;;;;;;5011535;28;20228;-83
2024/03/24 07:19:22;;;;;;;10.43;3.93;;;8.00;14.90;;;;;;5012915;28;20170;-86
2024/03/24 07:21:47;;;;;;;10.57;3.37;;;8.10;15.30;;;;;;5012345;28;20173;-85
2024/03/24 07:24:13;;;;;;;12.00;3.60;;;8.00;4.40;;;;;;5011987;28;20189;-83
2024/03/24 07:26:39;;;;;;;9.40;2.97;;;8.00;6.60;;;;;;5012405;28;20167;-82
2024/03/24 07:29:05;;;;;;;12.13;4.20;;;8.10;2.30;;;;;;5011385;28;20820;-87
2024/03/24 07:31:33;;;;;;;11.90;4.20;;;8.10;1.60;;;;;;5011058;28;20205;-85
2024/03/24 07:33:59;;;;;;;10.10;3.20;;;8.10;1.00;;;;;;5012546;28;20664;-86
2024/03/24 07:36:25;;;;;;;6.70;3.60;;;8.20;1.00;;;;;;5044464;28;20289;-82
2024/03/24 07:38:50;;;;;;;11.20;3.37;;;8.10;1.00;;;;;;5044689;28;20552;-86
2024/03/24 07:41:17;;;;;;;6.80;2.63;;;8.20;1.00;;;;;;5043627;28;20224;-83
2024/03/24 07:43:43;;;;;;;6.50;2.60;;;8.20;1.00;;;;;;5010670;28;20210;-87
2024/03/24 07:46:09;;;;;;;14.63;3.83;;;8.20;1.00;;;;;;5009804;28;20521;-81
2024/03/24 07:48:34;;;;;;;8.13;3.20;;;8.20;1.00;;;;;;5043901;28;20174;-89
2024/03/24 07:51:00;;;;;;;10.70;3.67;;;8.20;1.00;;;;;;5011718;28;20250;-87
2024/03/24 07:53:26;;;;;;;11.87;3.63;;;8.30;1.00;;;;;;5011527;28;20643;-85
2024/03/24 07:55:51;;;;;;;12.93;4.23;;;8.30;1.00;;;;;;5011855;28;20234;-82
2024/03/24 07:58:17;;;;;;;11.27;3.60;;;8.40;1.00;;;;;;5012173;28;20627;-82
2024/03/24 08:00:43;;;;;;;6.57;3.37;;;8.40;1.00;;;;;;5011669;28;20166;-84
2024/03/24 08:03:09;;;;;;;9.30;3.60;;;8.50;1.00;;;;;;5010421;28;20222;-85
2024/03/24 08:05:35;;;;;;;9.73;3.90;;;8.50;1.00;;;;;;5009963;28;20213;-88
2024/03/24 08:08:00;;;;;;;8.10;3.80;;;8.60;1.00;;;;;;5010149;28;20186;-85
2024/03/24 08:10:26;;;;;;;11.53;3.90;;;8.60;1.00;;;;;;5044946;28;20178;-89
2024/03/24 08:12:52;;;;;;;8.37;3.20;;;8.70;1.00;;;;;;5015240;28;20566;-87
2024/03/24 08:15:18;;;;;;;12.53;3.90;;;8.60;1.00;;;;;;5047879;28;20207;-86
2024/03/24 08:17:44;;;;;;;10.27;2.93;;;8.60;1.00;;;;;;5014725;28;20178;-86
2024/03/24 08:20:10;;;;;;;11.50;3.87;;;8.70;1.00;;;;;;5047388;28;20537;-86
2024/03/24 08:22:36;;;;;;;7.73;3.40;;;8.80;1.00;;;;;;5047547;28;20194;-85
2024/03/24 08:25:02;;;;;;;8.37;3.43;;;8.70;1.00;;;;;;5014538;28;20181;-83
2024/03/24 08:27:28;;;;;;;10.10;3.87;;;8.70;1.00;;;;;;5047103;28;20310;-81
2024/03/24 08:29:53;;;;;;;10.00;3.47;;;8.80;1.00;;;;;;5047227;28;20170;-88
2024/03/24 08:32:20;;;;;;;9.33;3.40;;;8.70;1.00;;;;;;5014214;28;20647;-83
2024/03/24 08:34:45;;;;;;;9.27;3.80;;;8.70;1.00;;;;;;5015364;28;20174;-87
2024/03/24 08:37:11;;;;;;;8.80;2.97;;;8.80;1.00;;;;;;5013750;28;20614;-87
2024/03/24 08:39:37;;;;;;;6.70;3.10;;;8.80;1.00;;;;;;5013599;28;20185;-84
2024/03/24 08:42:03;;;;;;;9.27;3.50;;;8.90;1.00;;;;;;5046951;28;20217;-88
2024/03/24 08:44:28;;;;;;;8.40;3.63;;;8.90;1.00;;;;;;5047306;28;20185;-84
2024/03/24 08:46:54;;;;;;;8.20;3.53;;;9.10;1.00;;;;;;5047646;28;20253;-90
2024/03/24 08:49:20;;;;;;;8.27;3.70;;;9.00;1.00;;;;;;5047753;28;20208;-85
2024/03/24 08:51:49;;;;;;;12.87;4.10;;;8.90;1.00;;;;;;5047490;28;20213;-87
2024/03/24 08:54:15;;;;;;;9.57;4.10;;;9.10;1.00;;;;;;5046765;28;20231;-88
2024/03/24 08:56:41;;;;;;;12.13;3.43;;;9.10;1.00;;;;;;5012821;28;20183;-85
2024/03/24 08:59:07;;;;;;;11.63;4.20;;;9.10;1.00;;;;;;5013529;28;20178;-87
2024/03/24 09:01:33;;;;;;;8.40;3.20;;;9.20;1.00;;;;;;5047082;28;20186;-85
2024/03/24 09:03:59;;;;;;;8.07;3.17;;;9.30;1.00;;;;;;5046609;28;20560;-85
2024/03/24 09:06:24;;;;;;;10.87;3.87;;;9.30;1.00;;;;;;5014040;28;20174;-87
2024/03/24 09:08:50;;;;;;;12.70;4.10;;;9.30;1.00;;;;;;5013481;28;20549;-84
2024/03/24 09:11:16;;;;;;;5.37;2.70;;;9.30;1.00;;;;;;5018601;28;20181;-83
2024/03/24 09:13:42;;;;;;;11.50;3.63;;;9.20;1.00;;;;;;5020468;28;20217;-82
2024/03/24 09:16:07;;;;;;;9.77;3.90;;;9.10;1.00;;;;;;5012976;28;20206;-83
2024/03/24 09:18:34;;;;;;;4.57;2.73;;;9.10;1.00;;;;;;5011857;28;20229;-86
2024/03/24 09:21:05;;;;;;;6.67;3.00;;;9.20;1.00;;;;;;5031778;28;20638;-86
2024/03/24 09:23:32;;;;;;;14.27;3.97;;;9.20;1.00;;;;;;5034199;28;20237;-85
2024/03/24 09:25:58;;;;;;;10.33;3.63;;;9.40;1.00;;;;;;5032609;28;20228;-85
2024/03/24 09:28:23;;;;;;;7.80;3.33;;;9.50;1.00;;;;;;5005713;28;20175;-87
2024/03/24 09:31:00;;;;;;;7.40;3.63;;;9.50;1.00;;;;;;4994021;28;20174;-85
2024/03/24 09:33:27;;;;;;;10.20;3.50;;;9.40;1.00;;;;;;5012466;28;20201;-87
2024/03/24 09:35:53;;;;;;;10.77;3.10;;;9.40;1.00;;;;;;5012451;28;20216;-86
2024/03/24 09:38:19;;;;;;;9.93;3.23;;;9.40;1.00;;;;;;5013321;28;20181;-88
2024/03/24 09:40:47;;;;;;;10.23;3.63;;;9.30;1.00;;;;;;5011723;28;20665;-86
2024/03/24 09:43:16;;;;;;;6.97;3.07;;;9.30;1.00;;;;;;5012799;28;20248;-87
2024/03/24 09:45:43;;;;;;;9.03;3.20;;;9.20;1.00;;;;;;5013669;28;20639;-85
2024/03/24 09:48:13;;;;;;;9.87;3.00;;;9.20;1.00;;;;;;5012147;28;20306;-84
2024/03/24 09:50:40;;;;;;;9.13;3.33;;;9.20;1.00;;;;;;5012845;28;20171;-85
2024/03/24 09:53:07;;;;;;;10.23;3.50;;;9.20;1.00;;;;;;5011801;28;20174;-88
2024/03/24 09:55:34;;;;;;;7.27;2.83;;;9.20;1.00;;;;;;5012170;28;20178;-86
2024/03/24 09:58:00;;;;;;;5.67;2.60;;;9.30;1.00;;;;;;5012888;28;20180;-86
2024/03/24 10:00:26;;;;;;;6.47;2.93;;;9.50;1.00;;;;;;5023516;28;20183;-86
2024/03/24 10:02:53;;;;;;;7.60;3.07;;;9.60;1.00;;;;;;5011842;28;20693;-85
2024/03/24 10:05:20;;;;;;;9.20;3.07;;;9.60;1.00;;;;;;5043939;28;20166;-87
2024/03/24 10:07:47;;;;;;;6.67;2.77;;;9.70;1.00;;;;;;5011879;28;20178;-87
2024/03/24 10:10:14;;;;;;;10.83;3.90;;;9.80;1.00;;;;;;5011898;28;20186;-87
2024/03/24 10:12:52;;;;;;;9.20;3.20;;;9.90;1.00;;;;;;5012279;28;20198;-87
2024/03/24 10:15:25;;;;;;;4.33;2.00;;;9.80;1.00;;;;;;5009920;28;20587;-87
2024/03/24 10:18:04;;;;;;;4.57;1.97;;;9.30;1.00;;;;;;5012160;28;20238;-87
2024/03/24 10:20:31;;;;;;;6.37;2.43;;;8.40;1.00;;;;;;5010762;28;20208;-87
2024/03/24 10:22:58;;;;;;;5.87;2.67;;;8.30;1.00;;;;;;5009340;28;20206;-88
2024/03/24 10:25:26;;;;;;;3.97;2.33;;;8.40;1.00;;;;;;5011828;28;20181;-87
2024/03/24 10:27:52;;;;;;;6.20;2.37;;;8.50;4.50;;;;;;5011681;28;20197;-86
2024/03/24 10:30:19;;;;;;;5.57;2.60;;;8.70;1.00;;;;;;5008880;28;20173;-85
2024/03/24 10:32:44;;;;;;;8.20;2.73;;;8.80;1.00;;;;;;5010555;28;20236;-86
2024/03/24 10:35:10;;;;;;;9.70;3.83;;;8.90;1.00;;;;;;5011064;28;20175;-86
2024/03/24 10:37:39;;;;;;;8.03;2.93;;;9.00;1.00;;;;;;5011349;28;20202;-85
2024/03/24 10:40:13;;;;;;;8.73;3.47;;;9.10;1.00;;;;;;5012317;28;20182;-86
2024/03/24 10:42:53;;;;;;;7.83;3.30;;;9.30;1.00;;;;;;5011350;28;20214;-85
2024/03/24 10:45:24;;;;;;;6.93;3.37;;;9.40;1.00;;;;;;5030438;28;20191;-86
2024/03/24 10:48:06;;;;;;;9.33;4.00;;;9.60;1.00;;;;;;5031858;28;20195;-86
2024/03/24 10:50:40;;;;;;;9.93;3.70;;;9.70;1.00;;;;;;5031458;28;20171;-85
2024/03/24 10:53:10;;;;;;;8.00;3.70;;;9.80;1.00;;;;;;5031609;28;20177;-86
2024/03/24 10:55:37;;;;;;;5.97;3.37;;;9.70;1.00;;;;;;5031038;28;20173;-89
2024/03/24 10:58:05;;;;;;;7.67;3.77;;;9.70;1.00;;;;;;5030921;28;20252;-87
2024/03/24 11:00:30;;;;;;;11.00;4.13;;;9.50;1.00;;;;;;5032440;28;20174;-87
2024/03/24 11:02:58;;;;;;;13.73;4.23;;;9.50;1.00;;;;;;5031640;28;20219;-89
2024/03/24 11:05:25;;;;;;;12.13;4.20;;;9.60;1.00;;;;;;5030958;28;20630;-84
2024/03/24 11:07:52;;;;;;;7.87;2.83;;;9.80;1.00;;;;;;5030852;28;20264;-86
2024/03/24 11:10:19;;;;;;;10.63;4.20;;;9.90;1.00;;;;;;5031276;28;20205;-84
2024/03/24 11:12:47;;;;;;;5.50;2.90;;;9.90;1.00;;;;;;5031389;28;20254;-86
2024/03/24 11:15:13;;;;;;;8.50;3.30;;;10.00;1.00;;;;;;5031565;28;20174;-88
2024/03/24 11:17:39;;;;;;;7.57;2.50;;;10.00;1.00;;;;;;5032497;28;20537;-86
2024/03/24 11:20:06;;;;;;;8.00;3.40;;;10.20;1.00;;;;;;5029977;28;20265;-84
2024/03/24 11:22:45;;;;;;;9.13;3.33;;;10.30;1.00;;;;;;5030393;28;20343;-86
2024/03/24 11:25:12;;;;;;;6.47;3.20;;;10.40;1.00;;;;;;5031432;28;20629;-84
2024/03/24 11:27:42;;;;;;;8.97;3.33;;;10.40;1.00;;;;;;5031299;28;20181;-85
2024/03/24 11:30:12;;;;;;;5.80;2.30;;;10.70;1.00;;;;;;5030314;28;20184;-86
2024/03/24 11:32:52;;;;;;;7.87;2.83;;;10.80;1.00;;;;;;5029951;28;20212;-86
2024/03/24 11:35:27;;;;;;;5.93;2.93;;;10.70;1.00;;;;;;5031402;28;20205;-86
2024/03/24 11:37:54;;;;;;;10.33;3.60;;;10.60;1.00;;;;;;5032319;28;20176;-84
2024/03/24 11:40:27;;;;;;;7.80;2.60;;;10.60;1.00;;;;;;5031170;28;20170;-86
2024/03/24 11:42:56;;;;;;;6.03;2.10;;;10.60;1.00;;;;;;5030180;28;20198;-85
2024/03/24 11:45:29;;;;;;;4.83;2.40;;;10.50;1.00;;;;;;5036246;28;20320;-84
2024/03/24 11:48:17;;;;;;;6.53;2.23;;;10.50;1.00;;;;;;5038248;28;20268;-86
2024/03/24 11:50:43;;;;;;;4.93;1.83;;;10.60;1.00;;;;;;5035459;28;20215;-85
2024/03/24 11:53:10;;;;;;;5.93;2.13;;;10.70;1.00;;;;;;5035056;28;20177;-88
2024/03/24 11:55:40;;;;;;;4.67;2.03;;;10.80;1.00;;;;;;5034576;28;20178;-88
2024/03/24 11:58:06;;;;;;;10.40;3.00;;;10.90;1.00;;;;;;5037113;28;20181;-85
2024/03/24 12:00:32;;;;;;;6.03;2.27;;;10.90;1.00;;;;;;5034798;28;20193;-85
2024/03/24 12:02:58;;;;;;;7.50;2.40;;;10.90;1.00;;;;;;5034290;28;20338;-88
2024/03/24 12:05:24;;;;;;;7.57;2.87;;;10.70;1.00;;;;;;5024794;28;20197;-89
2024/03/24 12:07:51;;;;;;;5.47;2.03;;;10.50;1.00;;;;;;5015236;28;20638;-87
2024/03/24 12:10:16;;;;;;;7.03;2.30;;;10.40;1.00;;;;;;5021527;28;20260;-86
2024/03/24 12:12:42;;;;;;;7.33;2.13;;;10.40;1.00;;;;;;5030699;28;20741;-90
2024/03/24 12:15:11;;;;;;;7.50;2.33;;;10.50;1.00;;;;;;5013834;28;20693;-84
2024/03/24 12:17:37;;;;;;;5.50;2.53;;;10.50;1.00;;;;;;5013907;28;20186;-86
2024/03/24 12:20:04;;;;;;;6.60;2.90;;;10.60;1.00;;;;;;5013217;28;20178;-87
2024/03/24 12:22:30;;;;;;;7.37;2.80;;;10.60;1.00;;;;;;5010649;28;20194;-83
2024/03/24 12:24:56;;;;;;;7.90;2.30;;;10.50;1.00;;;;;;5014061;28;20171;-88
2024/03/24 12:27:21;;;;;;;6.17;2.30;;;10.40;1.00;;;;;;5013973;28;20589;-87
2024/03/24 12:29:55;;;;;;;7.77;2.90;;;10.50;1.00;;;;;;5030642;28;20192;-86
2024/03/24 12:32:24;;;;;;;5.13;2.07;;;10.40;1.00;;;;;;5016019;28;20717;-86
2024/03/24 12:34:50;;;;;;;5.83;2.10;;;10.30;1.00;;;;;;5012699;28;20213;-87
2024/03/24 12:37:17;;;;;;;7.03;2.60;;;10.10;1.00;;;;;;5013260;28;20174;-85
2024/03/24 12:39:48;;;;;;;5.73;2.07;;;10.10;1.00;;;;;;5012166;28;20231;-85
2024/03/24 12:42:15;;;;;;;7.63;2.57;;;10.20;1.00;;;;;;5024651;28;20713;-85
2024/03/24 12:44:41;;;;;;;5.40;2.07;;;10.20;1.00;;;;;;5031705;28;20459;-85
2024/03/24 12:47:13;;;;;;;7.47;2.47;;;10.10;1.00;;;;;;5031966;28;20268;-84
2024/03/24 12:49:40;;;;;;;7.83;2.23;;;10.20;1.00;;;;;;5031719;28;20208;-85
2024/03/24 12:52:06;;;;;;;7.20;2.17;;;10.20;1.00;;;;;;5031396;28;20181;-85
2024/03/24 12:54:34;;;;;;;5.53;2.53;;;10.20;1.00;;;;;;5024667;28;20663;-85
2024/03/24 12:57:01;;;;;;;6.67;2.27;;;10.20;1.00;;;;;;5012540;28;20177;-85